^^
Station Historical Data
Daily Summary for April 24, 2017 Units:  Metric    English   Both
« Previous Day
Next Day »
Daily Weekly Monthly Yearly Custom
  High: Low: Average:
Temperature: 27.8 °C 15.7 °C 20.1 °C
Dew Point: 11.6 °C 7.3 °C 8.9 °C
Humidity: 63% 31% 50%
Wind Speed: 28.8km/h 0km/h 2.9km/h
Wind Gust: 33.8km/h - -
Wind- - SE
Pressure: 1016.8 hPa 1013.1 hPa -
Precipitation: 0 mm    
Historical Graphs
 
 
Tabular Data for April 24, 2017
Time Temperature Dew Point Pressure Wind Wind Speed Wind Gust Humidity Rainfall Rate (Hourly) solar Conditions
00:14 19.2 °C 8.5 °C 1014.8 hPa Calm   9.7 km/h 50% 0 mm 0.0 W/m2
00:19 19.1 °C 8.4 °C 1014.8 hPa Calm     50% 0 mm 0.0 W/m2
00:24 18.8 °C 8.2 °C 1014.8 hPa Calm     50% 0 mm 0.0 W/m2
00:29 18.6 °C 8.3 °C 1014.8 hPa Calm     51% 0 mm 0.0 W/m2
00:34 18.5 °C 8.2 °C 1014.8 hPa Calm     51% 0 mm 0.0 W/m2
00:39 18.6 °C 8.3 °C 1015.1 hPa Calm     51% 0 mm 0.0 W/m2
00:45 18.6 °C 8.3 °C 1014.8 hPa Calm     51% 0 mm 0.0 W/m2
00:50 18.6 °C 8 °C 1015.1 hPa Calm     50% 0 mm 0.0 W/m2
00:55 18.6 °C 8 °C 1015.1 hPa Calm     50% 0 mm 0.0 W/m2
01:00 18.5 °C 7.9 °C 1015.1 hPa Calm     50% 0 mm 0.0 W/m2
01:05 18.5 °C 7.9 °C 1015.1 hPa Calm     50% 0 mm 0.0 W/m2
01:10 18.4 °C 7.5 °C 1015.1 hPa Calm     49% 0 mm 0.0 W/m2
01:15 18.2 °C 7.6 °C 1015.1 hPa Calm     50% 0 mm 0.0 W/m2
01:21 18 °C 7.7 °C 1015.1 hPa Calm     51% 0 mm 0.0 W/m2
01:26 17.8 °C 7.5 °C 1015.1 hPa Calm     51% 0 mm 0.0 W/m2
01:31 17.8 °C 7.8 °C 1015.1 hPa Calm     52% 0 mm 0.0 W/m2
01:41 17.7 °C 7.7 °C 1015.1 hPa Calm     52% 0 mm 0.0 W/m2
01:47 17.7 °C 8 °C 1015.1 hPa Calm     53% 0 mm 0.0 W/m2
01:52 17.6 °C 7.9 °C 1015.1 hPa Calm     53% 0 mm 0.0 W/m2
01:57 17.3 °C 7.6 °C 1015.1 hPa Calm     53% 0 mm 0.0 W/m2
02:02 17 °C 7.3 °C 1014.8 hPa Calm     53% 0 mm 0.0 W/m2
02:07 16.7 °C 7.6 °C 1015.1 hPa Calm     55% 0 mm 0.0 W/m2
02:12 16.6 °C 7.8 °C 1015.1 hPa Calm     56% 0 mm 0.0 W/m2
02:17 16.5 °C 7.7 °C 1014.8 hPa Calm     56% 0 mm 0.0 W/m2
02:23 16.3 °C 7.8 °C 1015.1 hPa Calm     57% 0 mm 0.0 W/m2
02:28 16.4 °C 8.1 °C 1014.8 hPa North 1.4 km/h 1.6 km/h 58% 0 mm 0.0 W/m2
02:33 16.8 °C 8.2 °C 1014.8 hPa Calm     57% 0 mm 0.0 W/m2
02:38 16.9 °C 8.1 °C 1014.8 hPa Calm     56% 0 mm 0.0 W/m2
02:44 16.7 °C 7.9 °C 1014.8 hPa Calm   1.6 km/h 56% 0 mm 0.0 W/m2
02:49 16.6 °C 8 °C 1014.8 hPa Calm   12.9 km/h 57% 0 mm 0.0 W/m2
02:54 16.8 °C 8.2 °C 1014.8 hPa Calm   11.3 km/h 57% 0 mm 0.0 W/m2
02:59 16.9 °C 8.1 °C 1014.8 hPa Calm   8 km/h 56% 0 mm 0.0 W/m2
03:09 16.8 °C 8 °C 1014.8 hPa Calm     56% 0 mm 0.0 W/m2
03:14 16.6 °C 7.8 °C 1014.8 hPa Calm   6.4 km/h 56% 0 mm 0.0 W/m2
03:24 16.2 °C 7.7 °C 1014.8 hPa North 7.9 km/h 9.7 km/h 57% 0 mm 0.0 W/m2
03:29 16 °C 7.7 °C 1014.8 hPa Calm   11.3 km/h 58% 0 mm 0.0 W/m2
03:34 15.8 °C 7.8 °C 1014.8 hPa Calm   1.6 km/h 59% 0 mm 0.0 W/m2
03:40 15.7 °C 8 °C 1014.8 hPa Calm     60% 0 mm 0.0 W/m2
03:50 15.8 °C 8.3 °C 1014.8 hPa North 1.4 km/h 1.6 km/h 61% 0 mm 0.0 W/m2
03:55 16.1 °C 8.6 °C 1014.8 hPa North 6.4 km/h 6.4 km/h 61% 0 mm 0.0 W/m2
04:00 16.3 °C 8.5 °C 1014.8 hPa Calm     60% 0 mm 0.0 W/m2
04:05 16.4 °C 8.6 °C 1014.8 hPa Calm     60% 0 mm 0.0 W/m2
04:10 16.6 °C 8.8 °C 1014.8 hPa Calm     60% 0 mm 0.0 W/m2
04:15 16.6 °C 8.8 °C 1014.8 hPa Calm     60% 0 mm 0.0 W/m2
04:20 16.5 °C 8.7 °C 1014.8 hPa Calm     60% 0 mm 0.0 W/m2
04:26 16.2 °C 8.4 °C 1014.8 hPa Calm     60% 0 mm 0.0 W/m2
04:31 16 °C 8.5 °C 1014.8 hPa Calm     61% 0 mm 0.0 W/m2
04:36 16 °C 8.7 °C 1014.8 hPa Calm     62% 0 mm 0.0 W/m2
04:51 15.7 °C 8.7 °C 1014.8 hPa Calm   11.3 km/h 63% 0 mm 0.0 W/m2
05:07 15.9 °C 8.4 °C 1015.1 hPa North 6.4 km/h 11.3 km/h 61% 0 mm 0.0 W/m2
05:12 15.9 °C 8.4 °C 1014.8 hPa Calm     61% 0 mm 0.0 W/m2
05:22 15.7 °C 8.2 °C 1015.1 hPa North 1.4 km/h 11.3 km/h 61% 0 mm 0.0 W/m2
05:37 15.9 °C 8.4 °C 1015.1 hPa North 6.4 km/h 12.9 km/h 61% 0 mm 0.0 W/m2
05:42 16 °C 8.5 °C 1015.1 hPa North 6.4 km/h 14.5 km/h 61% 0 mm 0.0 W/m2
05:47 16.1 °C 8.3 °C 1015.1 hPa Calm   12.9 km/h 60% 0 mm 0.0 W/m2
05:52 16.2 °C 8.7 °C 1015.1 hPa North 6.4 km/h 12.9 km/h 61% 0 mm 0.0 W/m2
05:58 16.3 °C 8.5 °C 1015.1 hPa Calm   14.5 km/h 60% 0 mm 0.0 W/m2
06:03 16.3 °C 8.5 °C 1015.1 hPa Calm     60% 0 mm 0.0 W/m2
06:08 16.3 °C 8.5 °C 1015.1 hPa Calm     60% 0 mm 0.0 W/m2
06:13 16.3 °C 8.8 °C 1015.1 hPa North 1.4 km/h 11.3 km/h 61% 0 mm 5.0 W/m2
06:23 16.4 °C 8.9 °C 1015.5 hPa Calm   3.2 km/h 61% 0 mm 12.0 W/m2
06:29 16.3 °C 8.8 °C 1015.5 hPa Calm     61% 0 mm 14.0 W/m2
06:34 16.3 °C 8.8 °C 1015.5 hPa Calm     61% 0 mm 18.0 W/m2
06:44 16.4 °C 9.1 °C 1015.8 hPa Calm     62% 0 mm 23.0 W/m2
06:50 16.4 °C 9.1 °C 1015.8 hPa Calm     62% 0 mm 56.0 W/m2
06:54 16.6 °C 9.3 °C 1015.8 hPa Calm   19.3 km/h 62% 0 mm 69.0 W/m2
07:04 17.2 °C 9.6 °C 1015.8 hPa North 3.2 km/h 16.1 km/h 61% 0 mm 102.0 W/m2
07:19 17.9 °C 10 °C 1016.1 hPa North 6.4 km/h 11.3 km/h 60% 0 mm 162.0 W/m2
07:24 17.9 °C 10 °C 1016.1 hPa North 6.4 km/h 11.3 km/h 60% 0 mm 162.0 W/m2
07:39 18.7 °C 10.3 °C 1016.1 hPa Calm   12.9 km/h 58% 0 mm 218.0 W/m2
07:49 19.3 °C 10.3 °C 1016.5 hPa Calm     56% 0 mm 269.0 W/m2
08:04 19.8 °C 10.2 °C 1016.5 hPa Calm     54% 0 mm 299.0 W/m2
08:10 20.4 °C 9.6 °C 1016.5 hPa Calm     50% 0 mm 330.0 W/m2
08:20 20.8 °C 9.7 °C 1016.5 hPa Calm     49% 0 mm 366.0 W/m2
08:35 21.3 °C 9.5 °C 1016.5 hPa Calm   6.4 km/h 47% 0 mm 415.0 W/m2
08:51 21.5 °C 9.7 °C 1016.8 hPa Calm     47% 0 mm 455.0 W/m2
09:13 21.6 °C 10.1 °C 1016.8 hPa North 3.2 km/h 16.1 km/h 48% 0 mm 490.0 W/m2
09:25 21.8 °C 10.3 °C 1016.8 hPa North 13 km/h 17.7 km/h 48% 0 mm 524.0 W/m2
09:31 22 °C 10.5 °C 1016.8 hPa North 9.7 km/h 19.3 km/h 48% 0 mm 545.0 W/m2
09:40 22.2 °C 10.7 °C 1016.8 hPa Calm   1.6 km/h 48% 0 mm 554.0 W/m2
09:47 22.8 °C 10.6 °C 1016.8 hPa Calm   9.7 km/h 46% 0 mm 577.0 W/m2
10:01 23.1 °C 10.2 °C 1016.8 hPa Calm   12.9 km/h 44% 0 mm 598.0 W/m2
10:11 23.5 °C 10.5 °C 1016.8 hPa Calm     44% 0 mm 617.0 W/m2
10:17 23.7 °C 10.4 °C 1016.5 hPa Calm     43% 0 mm 629.0 W/m2
10:32 23.8 °C 10.5 °C 1016.5 hPa Calm   17.7 km/h 43% 0 mm 649.0 W/m2
10:58 24.7 °C 10.9 °C 1016.1 hPa Calm     42% 0 mm 677.0 W/m2
11:14 25.1 °C 11.3 °C 1015.8 hPa Calm     42% 0 mm 687.0 W/m2
11:28 25.2 °C 11 °C 1015.5 hPa North 6.4 km/h 20.9 km/h 41% 0 mm 687.0 W/m2
11:51 26.1 °C 11.4 °C 1015.1 hPa North 16.3 km/h 29 km/h 40% 0 mm 700.0 W/m2
12:01 25.8 °C 11.5 °C 1015.1 hPa North 9.7 km/h 24.1 km/h 41% 0 mm 693.0 W/m2
12:13 26.1 °C 11.4 °C 1014.8 hPa North 3.2 km/h 33.8 km/h 40% 0 mm 700.0 W/m2
12:18 26.3 °C 11.6 °C 1014.8 hPa NNW 17.7 km/h 24.1 km/h 40% 0 mm 689.0 W/m2
12:28 26.4 °C 11.3 °C 1014.4 hPa North 6.4 km/h 19.3 km/h 39% 0 mm 679.0 W/m2
15:39 27.8 °C 9.1 °C 1013.1 hPa NNW 11.1 km/h 29 km/h 31% 0 mm 353.0 W/m2
15:49 27.7 °C 9 °C 1013.4 hPa North 28.8 km/h 32.2 km/h 31% 0 mm 316.0 W/m2
16:04 27.4 °C 8.8 °C 1013.1 hPa NNE 20.9 km/h 33.8 km/h 31% 0 mm 251.0 W/m2
16:19 27.4 °C 8.8 °C 1013.1 hPa NNE 20.9 km/h 27.4 km/h 31% 0 mm 185.0 W/m2
16:34 27.1 °C 8.5 °C 1013.1 hPa NNW 22.7 km/h 22.7 km/h 31% 0 mm 114.0 W/m2
16:54 26.8 °C 8.3 °C 1013.4 hPa NNW 13 km/h 22.5 km/h 31% 0 mm 54.0 W/m2
17:09 26.3 °C 8.3 °C 1013.4 hPa NNW 14.3 km/h 25.7 km/h 32% 0 mm 19.0 W/m2
17:19 26.1 °C 8.1 °C 1013.4 hPa NNW 13 km/h 20.9 km/h 32% 0 mm 9.0 W/m2
17:28 25.9 °C 8.4 °C 1013.4 hPa North 19.5 km/h 22.5 km/h 33% 0 mm 0.0 W/m2
17:39 25.7 °C 8.2 °C 1013.8 hPa NNW 14.3 km/h 22.5 km/h 33% 0 mm 0.0 W/m2
17:44 25.6 °C 8.1 °C 1013.8 hPa North 9.7 km/h 20.9 km/h 33% 0 mm 0.0 W/m2
17:59 25.5 °C 8 °C 1014.1 hPa North 7.9 km/h 22.5 km/h 33% 0 mm 0.0 W/m2
18:04 25.4 °C 8.4 °C 1014.1 hPa North 7.9 km/h 20.9 km/h 34% 0 mm 0.0 W/m2
18:19 25.3 °C 8.3 °C 1014.1 hPa North 7.9 km/h 12.9 km/h 34% 0 mm 0.0 W/m2
18:24 25.2 °C 8.2 °C 1014.4 hPa North 7.9 km/h 12.9 km/h 34% 0 mm 0.0 W/m2
18:34 25.1 °C 8.1 °C 1014.4 hPa North 13 km/h 17.7 km/h 34% 0 mm 0.0 W/m2
18:55 24.9 °C 8.4 °C 1014.4 hPa North 9.7 km/h 16.1 km/h 35% 0 mm 0.0 W/m2
19:10 24.8 °C 8.3 °C 1014.4 hPa Calm     35% 0 mm 0.0 W/m2
19:20 24.5 °C 8.4 °C 1014.8 hPa Calm     36% 0 mm 0.0 W/m2
19:43 24.3 °C 8.3 °C 1014.8 hPa Calm     36% 0 mm 0.0 W/m2
19:51 23.2 °C 8.1 °C 1015.1 hPa Calm     38% 0 mm 0.0 W/m2
19:59 23.2 °C 8.1 °C 1015.1 hPa Calm     38% 0 mm 0.0 W/m2
20:11 22.2 °C 8 °C 1015.1 hPa Calm     40% 0 mm 0.0 W/m2
20:33 22.2 °C 8.7 °C 1015.5 hPa Calm     42% 0 mm 0.0 W/m2
20:42 22 °C 8.8 °C 1015.5 hPa Calm     43% 0 mm 0.0 W/m2
21:01 21.9 °C 9.1 °C 1015.5 hPa Calm     44% 0 mm 0.0 W/m2
21:10 21.7 °C 8.9 °C 1015.5 hPa Calm     44% 0 mm 0.0 W/m2
21:18 21.6 °C 9.2 °C 1015.5 hPa Calm     45% 0 mm 0.0 W/m2
22:44 21 °C 9.3 °C 1015.5 hPa Calm     47% 0 mm 0.0 W/m2
22:54 20.8 °C 9.4 °C 1015.5 hPa Calm     48% 0 mm 0.0 W/m2
22:59 20.8 °C 9.4 °C 1015.5 hPa Calm     48% 0 mm 0.0 W/m2
23:04 20.8 °C 9.4 °C 1015.5 hPa Calm     48% 0 mm 0.0 W/m2
23:09 20.7 °C 9.6 °C 1015.5 hPa Calm     49% 0 mm 0.0 W/m2
23:14 20.7 °C 9.6 °C 1015.5 hPa Calm     49% 0 mm 0.0 W/m2
23:19 20.7 °C 9.6 °C 1015.5 hPa Calm     49% 0 mm 0.0 W/m2
23:24 20.8 °C 9.7 °C 1015.5 hPa Calm     49% 0 mm 0.0 W/m2
23:29 20.8 °C 9.7 °C 1015.5 hPa Calm     49% 0 mm 0.0 W/m2
23:34 20.9 °C 9.8 °C 1015.5 hPa Calm     49% 0 mm 0.0 W/m2
23:39 21 °C 9.9 °C 1015.5 hPa Calm     49% 0 mm 0.0 W/m2
23:44 21.1 °C 10 °C 1015.5 hPa Calm     49% 0 mm 0.0 W/m2
23:50 21.2 °C 10.1 °C 1015.5 hPa Calm     49% 0 mm 0.0 W/m2
Canyon Roadhouse, Fishriver Canyon, Namibia
Compliments of Weather Underground - 2.25 mb